Time;durP1;ratioP1;P1;durP2;ratioP2;P2;SDS_P1;SDS_P2;PMS_P1;PMS_P2;Temp;Humidity;BMP_temperature;BMP_pressure;BME280_temperature;BME280_humidity;BME280_pressure;Samples;Min_cycle;Max_cycle;Signal;HPM_P1;HPM_P2
2022/04/18 00:02:09;;;;;;;3.60;2.70;;;;;;;;;;5014125;28;20651;-58
2022/04/18 00:04:35;;;;;;;4.33;3.23;;;;;;;;;;5013246;28;20401;-58
2022/04/18 00:07:01;;;;;;;3.43;2.87;;;;;;;;;;5011614;28;20219;-58
2022/04/18 00:09:30;;;;;;;3.93;2.60;;;;;;;;;;5014064;28;20215;-58
2022/04/18 00:11:56;;;;;;;3.03;2.60;;;;;;;;;;5014272;28;21373;-57
2022/04/18 00:14:22;;;;;;;3.30;3.00;;;;;;;;;;5013668;28;20197;-57
2022/04/18 00:16:48;;;;;;;5.10;3.33;;;;;;;;;;5013128;28;20190;-58
2022/04/18 00:19:14;;;;;;;3.87;3.03;;;;;;;;;;5015272;28;20205;-58
2022/04/18 00:21:40;;;;;;;3.27;2.90;;;;;;;;;;5013318;28;20189;-58
2022/04/18 00:24:06;;;;;;;4.53;2.70;;;;;;;;;;5014085;28;20182;-58
2022/04/18 00:26:32;;;;;;;4.13;2.80;;;;;;;;;;5017584;28;20200;-58
2022/04/18 00:28:57;;;;;;;3.90;3.07;;;;;;;;;;5017475;28;20196;-57
2022/04/18 00:31:23;;;;;;;3.00;2.70;;;;;;;;;;5019249;28;20216;-58
2022/04/18 00:33:49;;;;;;;3.63;2.63;;;;;;;;;;5018004;28;20291;-59
2022/04/18 00:36:15;;;;;;;3.67;2.77;;;;;;;;;;5017271;28;20190;-58
2022/04/18 00:38:44;;;;;;;4.33;2.83;;;;;;;;;;5017521;28;20649;-58
2022/04/18 00:41:10;;;;;;;2.77;2.57;;;;;;;;;;5018146;28;20199;-58
2022/04/18 00:43:43;;;;;;;3.23;2.40;;;;;;;;;;5014993;28;20201;-57
2022/04/18 00:46:09;;;;;;;3.67;2.50;;;;;;;;;;5016450;28;20243;-58
2022/04/18 00:48:35;;;;;;;3.23;2.73;;;;;;;;;;5017871;28;20343;-57
2022/04/18 00:51:01;;;;;;;2.90;2.70;;;;;;;;;;5016767;28;20197;-58
2022/04/18 00:53:27;;;;;;;5.10;2.90;;;;;;;;;;5018069;28;20237;-57
2022/04/18 00:55:53;;;;;;;3.17;2.67;;;;;;;;;;5022457;28;20224;-57
2022/04/18 00:58:20;;;;;;;2.70;2.50;;;;;;;;;;5017947;28;20663;-58
2022/04/18 01:00:47;;;;;;;2.70;2.50;;;;;;;;;;5020506;28;20193;-58
2022/04/18 01:03:12;;;;;;;3.80;2.83;;;;;;;;;;5016934;28;20287;-57
2022/04/18 01:05:38;;;;;;;3.10;2.70;;;;;;;;;;5017731;28;20663;-58
2022/04/18 01:08:05;;;;;;;3.87;2.83;;;;;;;;;;5018145;28;20212;-58
2022/04/18 01:10:31;;;;;;;3.23;2.63;;;;;;;;;;5016357;28;20200;-57
2022/04/18 01:12:57;;;;;;;2.97;2.57;;;;;;;;;;5016709;28;20205;-58
2022/04/18 01:15:23;;;;;;;3.47;2.67;;;;;;;;;;5015657;28;20231;-57
2022/04/18 01:17:49;;;;;;;2.70;2.47;;;;;;;;;;5016510;28;20193;-57
2022/04/18 01:20:15;;;;;;;3.70;2.60;;;;;;;;;;5013036;28;20539;-57
2022/04/18 01:22:42;;;;;;;2.70;2.50;;;;;;;;;;5015915;28;20196;-57
2022/04/18 01:30:37;;;;;;;3.13;2.80;;;;;;;;;;5014967;28;20772;-58
2022/04/18 01:33:04;;;;;;;2.90;2.60;;;;;;;;;;5012144;28;20220;-58
2022/04/18 01:35:30;;;;;;;3.27;2.40;;;;;;;;;;5017552;28;20244;-58
2022/04/18 01:37:55;;;;;;;2.40;2.20;;;;;;;;;;5016462;28;20197;-58
2022/04/18 01:40:21;;;;;;;2.90;2.60;;;;;;;;;;5016758;28;20193;-57
2022/04/18 01:42:47;;;;;;;4.30;2.60;;;;;;;;;;5014240;28;20197;-58
2022/04/18 01:45:13;;;;;;;3.67;2.60;;;;;;;;;;5015704;28;20193;-57
2022/04/18 01:47:39;;;;;;;3.93;3.03;;;;;;;;;;5015139;28;20197;-58
2022/04/18 01:50:05;;;;;;;4.13;2.70;;;;;;;;;;5016010;28;20276;-57
2022/04/18 01:52:31;;;;;;;3.40;3.10;;;;;;;;;;5015950;28;20668;-57
2022/04/18 01:54:57;;;;;;;2.57;2.37;;;;;;;;;;5016484;28;20319;-58
2022/04/18 01:57:23;;;;;;;3.73;2.70;;;;;;;;;;5013872;28;20193;-58
2022/04/18 01:59:49;;;;;;;2.93;2.63;;;;;;;;;;5015049;28;20639;-57
2022/04/18 02:02:15;;;;;;;2.43;2.23;;;;;;;;;;5013649;28;20662;-58
2022/04/18 02:04:41;;;;;;;2.83;2.63;;;;;;;;;;5017093;28;20193;-57
2022/04/18 02:07:10;;;;;;;4.40;2.60;;;;;;;;;;5015810;28;20213;-58
2022/04/18 02:09:36;;;;;;;2.60;2.40;;;;;;;;;;5016597;28;20265;-57
2022/04/18 02:12:02;;;;;;;3.17;2.27;;;;;;;;;;5015938;28;20297;-58
2022/04/18 02:14:27;;;;;;;4.13;2.47;;;;;;;;;;5014380;28;20570;-58
2022/04/18 02:16:53;;;;;;;5.20;2.80;;;;;;;;;;5016407;28;21118;-57
2022/04/18 02:19:19;;;;;;;3.83;2.63;;;;;;;;;;5016917;28;20189;-57
2022/04/18 02:21:45;;;;;;;3.07;2.60;;;;;;;;;;5016019;28;20201;-58
2022/04/18 02:24:14;;;;;;;2.83;2.43;;;;;;;;;;5015299;28;20196;-57
2022/04/18 02:26:40;;;;;;;4.07;2.63;;;;;;;;;;5010924;28;20189;-57
2022/04/18 02:29:06;;;;;;;3.70;2.63;;;;;;;;;;5015238;28;20200;-58
2022/04/18 02:32:47;;;;;;;3.10;2.40;;;;;;;;;;5015134;28;20298;-58
2022/04/18 02:34:18;;;;;;;3.20;2.73;;;;;;;;;;5013917;28;20286;-57
2022/04/18 02:36:43;;;;;;;3.53;2.57;;;;;;;;;;5017314;28;20185;-57
2022/04/18 02:39:09;;;;;;;3.73;2.33;;;;;;;;;;5017277;28;20311;-58
2022/04/18 02:41:36;;;;;;;2.97;2.67;;;;;;;;;;5014896;28;20241;-58
2022/04/18 02:44:02;;;;;;;3.47;2.67;;;;;;;;;;5011898;28;20220;-57
2022/04/18 02:46:27;;;;;;;2.73;2.40;;;;;;;;;;5015615;28;20288;-57
2022/04/18 02:48:53;;;;;;;2.70;2.50;;;;;;;;;;5014955;28;20196;-58
2022/04/18 02:51:20;;;;;;;2.80;2.60;;;;;;;;;;5013858;28;20200;-58
2022/04/18 02:53:45;;;;;;;3.30;2.60;;;;;;;;;;5016082;28;20216;-58
2022/04/18 02:56:11;;;;;;;3.30;2.30;;;;;;;;;;5014359;28;20700;-57
2022/04/18 02:58:38;;;;;;;2.97;2.67;;;;;;;;;;5014039;28;20995;-57
2022/04/18 03:01:03;;;;;;;2.73;2.50;;;;;;;;;;5014041;28;20647;-56
2022/04/18 03:03:29;;;;;;;4.43;2.77;;;;;;;;;;5014690;28;20190;-58
2022/04/18 03:05:55;;;;;;;3.10;2.33;;;;;;;;;;5015286;28;20197;-57
2022/04/18 03:08:21;;;;;;;2.57;2.37;;;;;;;;;;5014550;28;20201;-57
2022/04/18 03:11:03;;;;;;;3.50;2.43;;;;;;;;;;5018632;28;20247;-57
2022/04/18 03:13:29;;;;;;;3.90;2.73;;;;;;;;;;5013309;28;20228;-57
2022/04/18 03:15:55;;;;;;;3.73;2.60;;;;;;;;;;5015578;28;20235;-57
2022/04/18 03:18:21;;;;;;;2.70;2.50;;;;;;;;;;5015772;28;20700;-56
2022/04/18 03:20:47;;;;;;;2.90;2.60;;;;;;;;;;5013527;28;20192;-57
2022/04/18 03:23:13;;;;;;;2.90;2.60;;;;;;;;;;5015690;28;20197;-57
2022/04/18 03:25:39;;;;;;;2.70;2.40;;;;;;;;;;5014217;28;20731;-57
2022/04/18 03:28:05;;;;;;;3.20;2.57;;;;;;;;;;5013511;28;20728;-57
2022/04/18 03:30:30;;;;;;;2.63;2.43;;;;;;;;;;5015761;28;20241;-57
2022/04/18 03:32:56;;;;;;;2.90;2.40;;;;;;;;;;5009678;28;20227;-58
2022/04/18 03:35:22;;;;;;;2.50;2.30;;;;;;;;;;5014619;28;20227;-57
2022/04/18 03:40:33;;;;;;;3.80;2.53;;;;;;;;;;5015106;28;20196;-58
2022/04/18 03:42:59;;;;;;;2.80;2.40;;;;;;;;;;5018521;28;20208;-57
2022/04/18 03:45:25;;;;;;;4.80;2.50;;;;;;;;;;5011827;28;20194;-58
2022/04/18 03:47:51;;;;;;;2.93;2.63;;;;;;;;;;5013902;28;20206;-58
2022/04/18 03:50:17;;;;;;;3.00;2.60;;;;;;;;;;5013064;28;20272;-58
2022/04/18 03:52:43;;;;;;;3.47;2.33;;;;;;;;;;5012181;28;20295;-57
2022/04/18 03:55:09;;;;;;;2.60;2.40;;;;;;;;;;5017324;28;20188;-58
2022/04/18 03:57:35;;;;;;;2.60;2.40;;;;;;;;;;5012427;28;20232;-58
2022/04/18 04:00:01;;;;;;;5.57;2.93;;;;;;;;;;5013689;28;20221;-58
2022/04/18 04:02:26;;;;;;;3.50;2.90;;;;;;;;;;5012600;28;20197;-58
2022/04/18 04:04:52;;;;;;;3.03;2.50;;;;;;;;;;5014199;28;20204;-58
2022/04/18 04:07:18;;;;;;;2.60;2.40;;;;;;;;;;5013326;28;20287;-58
2022/04/18 04:09:44;;;;;;;3.60;2.47;;;;;;;;;;5013565;28;20219;-57
2022/04/18 04:12:10;;;;;;;3.27;2.30;;;;;;;;;;5012421;28;20833;-57
2022/04/18 04:14:36;;;;;;;2.80;2.60;;;;;;;;;;5013330;28;20198;-57
2022/04/18 04:17:02;;;;;;;3.13;2.73;;;;;;;;;;5013488;28;20193;-58
2022/04/18 04:19:28;;;;;;;3.57;2.17;;;;;;;;;;5012312;28;20186;-58
2022/04/18 04:21:57;;;;;;;3.73;2.50;;;;;;;;;;5014329;28;20193;-57
2022/04/18 04:24:22;;;;;;;2.93;2.73;;;;;;;;;;5014923;28;20235;-57
2022/04/18 04:26:49;;;;;;;3.53;2.60;;;;;;;;;;5015096;28;20653;-58
2022/04/18 04:29:15;;;;;;;2.63;2.43;;;;;;;;;;5012691;28;20219;-57
2022/04/18 04:31:41;;;;;;;2.63;2.43;;;;;;;;;;5013257;28;20193;-58
2022/04/18 04:34:10;;;;;;;2.77;2.57;;;;;;;;;;5013941;28;20224;-58
2022/04/18 04:36:36;;;;;;;3.87;2.60;;;;;;;;;;5013347;28;20628;-57
2022/04/18 04:39:02;;;;;;;2.67;2.47;;;;;;;;;;5012403;28;20196;-56
2022/04/18 04:41:28;;;;;;;3.80;2.90;;;;;;;;;;5014960;28;20193;-57
2022/04/18 04:43:53;;;;;;;3.20;2.90;;;;;;;;;;5013512;28;20819;-58
2022/04/18 04:46:19;;;;;;;3.33;2.93;;;;;;;;;;5013025;28;20582;-58
2022/04/18 04:48:45;;;;;;;4.70;2.97;;;;;;;;;;5013535;28;20205;-57
2022/04/18 04:51:11;;;;;;;4.73;2.70;;;;;;;;;;5013988;28;20254;-57
2022/04/18 04:53:37;;;;;;;2.80;2.60;;;;;;;;;;5013487;28;20277;-58
2022/04/18 04:56:03;;;;;;;3.33;2.70;;;;;;;;;;5009226;28;20207;-57
2022/04/18 04:58:29;;;;;;;3.47;2.23;;;;;;;;;;5011527;28;20737;-58
2022/04/18 05:00:55;;;;;;;2.50;2.30;;;;;;;;;;5012344;28;20285;-57
2022/04/18 05:03:21;;;;;;;3.00;2.60;;;;;;;;;;5012783;28;20315;-58
2022/04/18 05:05:47;;;;;;;3.60;2.50;;;;;;;;;;5013688;28;20200;-58
2022/04/18 05:08:13;;;;;;;3.83;2.80;;;;;;;;;;5014613;28;20272;-58
2022/04/18 05:10:39;;;;;;;4.27;2.77;;;;;;;;;;5019369;28;20281;-58
2022/04/18 05:13:05;;;;;;;4.03;2.60;;;;;;;;;;5018104;28;20215;-57
2022/04/18 05:15:32;;;;;;;2.93;2.70;;;;;;;;;;5016674;28;20204;-56
2022/04/18 05:17:58;;;;;;;3.53;2.53;;;;;;;;;;5016168;28;20559;-57
2022/04/18 05:20:24;;;;;;;3.60;2.70;;;;;;;;;;5016182;28;20190;-57
2022/04/18 05:22:50;;;;;;;2.97;2.67;;;;;;;;;;5018173;28;20280;-58
2022/04/18 05:25:16;;;;;;;2.70;2.50;;;;;;;;;;5015408;28;20204;-57
2022/04/18 05:27:43;;;;;;;3.40;2.57;;;;;;;;;;5015937;28;20195;-58
2022/04/18 05:30:09;;;;;;;3.50;2.67;;;;;;;;;;5015575;28;20254;-57
2022/04/18 05:32:35;;;;;;;3.10;2.80;;;;;;;;;;5016736;28;20223;-58
2022/04/18 05:35:01;;;;;;;3.47;2.33;;;;;;;;;;5015953;28;20247;-57
2022/04/18 05:37:27;;;;;;;2.90;2.60;;;;;;;;;;5017752;28;20189;-57
2022/04/18 05:39:53;;;;;;;3.23;2.50;;;;;;;;;;5016503;28;20746;-58
2022/04/18 05:42:22;;;;;;;3.83;2.40;;;;;;;;;;5015718;28;20189;-57
2022/04/18 05:44:48;;;;;;;3.10;2.73;;;;;;;;;;5015493;28;20212;-57
2022/04/18 05:47:14;;;;;;;3.90;2.67;;;;;;;;;;5017551;28;20611;-58
2022/04/18 05:49:40;;;;;;;3.33;2.50;;;;;;;;;;5013063;28;20231;-58
2022/04/18 05:52:06;;;;;;;2.80;2.50;;;;;;;;;;5015002;28;20248;-57
2022/04/18 05:54:33;;;;;;;3.20;2.63;;;;;;;;;;5016553;28;20697;-57
2022/04/18 05:57:02;;;;;;;2.97;2.67;;;;;;;;;;5015221;28;20216;-57
2022/04/18 05:59:28;;;;;;;4.80;2.77;;;;;;;;;;5015758;28;20194;-57
2022/04/18 06:01:54;;;;;;;2.73;2.53;;;;;;;;;;5017080;28;20669;-58
2022/04/18 06:04:20;;;;;;;3.63;3.03;;;;;;;;;;5012904;28;20663;-57
2022/04/18 06:06:46;;;;;;;4.10;2.83;;;;;;;;;;5015508;28;20212;-58
2022/04/18 06:09:12;;;;;;;3.13;2.50;;;;;;;;;;5014801;28;20204;-58
2022/04/18 06:11:38;;;;;;;3.10;2.50;;;;;;;;;;5014103;28;20197;-58
2022/04/18 06:14:04;;;;;;;2.90;2.60;;;;;;;;;;5015489;28;20223;-57
2022/04/18 06:16:30;;;;;;;4.87;2.63;;;;;;;;;;5013724;28;20305;-58
2022/04/18 06:18:56;;;;;;;3.27;2.60;;;;;;;;;;5016366;28;20197;-57
2022/04/18 06:21:22;;;;;;;2.70;2.50;;;;;;;;;;5015070;28;20682;-57
2022/04/18 06:23:48;;;;;;;3.67;2.50;;;;;;;;;;5016762;28;20666;-57
2022/04/18 06:26:14;;;;;;;2.90;2.30;;;;;;;;;;5016011;28;20548;-57
2022/04/18 06:28:40;;;;;;;3.20;2.63;;;;;;;;;;5014353;28;20197;-57
2022/04/18 06:31:06;;;;;;;2.43;2.23;;;;;;;;;;5015753;28;20228;-58
2022/04/18 06:33:34;;;;;;;3.10;2.30;;;;;;;;;;5016177;28;20213;-57
2022/04/18 06:36:00;;;;;;;4.17;2.50;;;;;;;;;;5015672;28;20231;-57
2022/04/18 06:38:26;;;;;;;3.17;2.87;;;;;;;;;;5013784;28;20189;-57
2022/04/18 06:40:52;;;;;;;4.20;2.60;;;;;;;;;;5015627;28;20186;-57
2022/04/18 06:43:18;;;;;;;3.43;2.60;;;;;;;;;;5015117;28;20543;-57
2022/04/18 06:45:44;;;;;;;2.93;2.73;;;;;;;;;;5015576;28;20196;-57
2022/04/18 06:48:10;;;;;;;3.07;2.43;;;;;;;;;;5014752;28;20643;-57
2022/04/18 06:50:36;;;;;;;3.53;2.53;;;;;;;;;;5014503;28;20194;-57
2022/04/18 06:53:02;;;;;;;3.17;2.50;;;;;;;;;;5013781;28;20241;-57
2022/04/18 06:56:58;;;;;;;2.73;2.30;;;;;;;;;;5017499;28;20198;-57
2022/04/18 06:58:14;;;;;;;2.83;2.53;;;;;;;;;;5014386;28;20182;-57
2022/04/18 07:00:40;;;;;;;3.77;2.30;;;;;;;;;;5015964;28;20656;-57
2022/04/18 07:03:06;;;;;;;3.67;2.50;;;;;;;;;;5015511;28;20634;-56
2022/04/18 07:05:32;;;;;;;2.67;2.23;;;;;;;;;;5015996;28;20185;-57
2022/04/18 07:07:58;;;;;;;2.60;2.40;;;;;;;;;;5013626;28;20677;-57
2022/04/18 07:10:24;;;;;;;3.30;2.33;;;;;;;;;;5013995;28;20204;-57
2022/04/18 07:12:50;;;;;;;2.77;2.43;;;;;;;;;;5013995;28;20222;-57
2022/04/18 07:15:15;;;;;;;3.27;2.47;;;;;;;;;;5016089;28;20189;-57
2022/04/18 07:17:41;;;;;;;3.07;2.60;;;;;;;;;;5013570;28;20281;-57
2022/04/18 07:20:08;;;;;;;3.27;2.57;;;;;;;;;;5014204;28;20196;-57
2022/04/18 07:22:37;;;;;;;2.63;2.03;;;;;;;;;;5009872;28;20227;-58
2022/04/18 07:25:04;;;;;;;4.33;2.40;;;;;;;;;;5013879;28;20554;-57
2022/04/18 07:27:30;;;;;;;3.33;2.30;;;;;;;;;;5012836;28;20197;-57
2022/04/18 07:29:55;;;;;;;2.53;2.30;;;;;;;;;;5014550;28;20654;-58
2022/04/18 07:32:21;;;;;;;2.80;2.50;;;;;;;;;;5013869;28;20233;-56
2022/04/18 07:34:47;;;;;;;3.47;2.10;;;;;;;;;;5015298;28;20209;-58
2022/04/18 07:37:13;;;;;;;2.57;2.10;;;;;;;;;;5013619;28;20251;-58
2022/04/18 07:39:39;;;;;;;3.60;2.20;;;;;;;;;;5008812;28;20190;-56
2022/04/18 07:42:05;;;;;;;2.30;2.10;;;;;;;;;;5013281;28;20227;-57
2022/04/18 07:44:31;;;;;;;2.50;2.30;;;;;;;;;;5012803;28;20667;-57
2022/04/18 07:46:58;;;;;;;2.90;2.17;;;;;;;;;;5012667;28;20197;-59
2022/04/18 07:49:24;;;;;;;3.17;2.67;;;;;;;;;;5008932;28;20246;-57
2022/04/18 07:51:50;;;;;;;3.33;2.03;;;;;;;;;;5011868;28;20209;-59
2022/04/18 07:54:17;;;;;;;2.80;2.00;;;;;;;;;;5014278;28;20590;-56
2022/04/18 07:56:43;;;;;;;2.37;2.00;;;;;;;;;;5015054;28;20559;-58
2022/04/18 07:59:10;;;;;;;2.47;2.07;;;;;;;;;;5017259;28;20184;-58
2022/04/18 08:01:36;;;;;;;2.30;2.10;;;;;;;;;;5012662;28;20666;-58
2022/04/18 08:04:02;;;;;;;2.77;2.20;;;;;;;;;;5002049;28;20197;-58
2022/04/18 08:06:28;;;;;;;3.07;2.33;;;;;;;;;;5007611;28;20308;-58
2022/04/18 08:08:54;;;;;;;3.40;2.27;;;;;;;;;;5014523;28;20677;-58
2022/04/18 08:11:20;;;;;;;2.43;2.23;;;;;;;;;;5012215;28;20272;-58
2022/04/18 08:13:46;;;;;;;2.33;2.13;;;;;;;;;;5012562;28;20220;-58
2022/04/18 08:16:12;;;;;;;2.37;1.90;;;;;;;;;;5013839;28;20220;-58
2022/04/18 08:18:39;;;;;;;3.90;2.30;;;;;;;;;;5012582;28;20657;-58
2022/04/18 08:21:08;;;;;;;3.07;2.20;;;;;;;;;;5012679;28;20193;-58
2022/04/18 08:23:34;;;;;;;2.40;2.20;;;;;;;;;;5013296;28;20219;-58
2022/04/18 08:26:01;;;;;;;3.67;2.63;;;;;;;;;;5018350;28;20190;-58
2022/04/18 08:28:26;;;;;;;2.20;2.00;;;;;;;;;;5013069;28;20193;-58
2022/04/18 08:30:53;;;;;;;3.13;2.00;;;;;;;;;;5014670;28;20780;-58
2022/04/18 08:33:19;;;;;;;2.20;2.00;;;;;;;;;;5014486;28;21009;-58
2022/04/18 08:35:45;;;;;;;2.50;1.80;;;;;;;;;;5013469;28;20634;-58
2022/04/18 08:38:11;;;;;;;3.30;2.10;;;;;;;;;;5013768;28;20189;-58
2022/04/18 08:40:37;;;;;;;3.10;2.17;;;;;;;;;;5013341;28;20195;-58
2022/04/18 08:43:03;;;;;;;2.30;2.10;;;;;;;;;;5012447;28;20651;-58
2022/04/18 08:45:29;;;;;;;4.10;2.33;;;;;;;;;;5013494;28;20197;-58
2022/04/18 08:53:29;;;;;;;2.67;2.47;;;;;;;;;;5016163;28;20262;-58
2022/04/18 08:55:55;;;;;;;4.35;2.45;;;;;;;;;;5018528;28;20189;-59
2022/04/18 08:58:22;;;;;;;3.35;2.47;;;;;;;;;;5017318;28;20276;-59
2022/04/18 09:00:48;;;;;;;2.70;2.30;;;;;;;;;;5016434;28;20737;-59
2022/04/18 09:03:14;;;;;;;3.92;2.60;;;;;;;;;;5018188;28;20224;-58
2022/04/18 09:05:40;;;;;;;2.92;2.33;;;;;;;;;;5016133;28;20189;-58
2022/04/18 09:08:09;;;;;;;2.67;2.30;;;;;;;;;;5018221;28;20213;-59
2022/04/18 09:10:35;;;;;;;2.28;2.08;;;;;;;;;;5020899;28;20248;-58
2022/04/18 09:13:05;;;;;;;3.63;2.30;;;;;;;;;;5020865;28;20213;-58
2022/04/18 09:15:34;;;;;;;2.70;2.20;;;;;;;;;;5016908;28;20240;-58
2022/04/18 09:18:07;;;;;;;2.75;2.10;;;;;;;;;;5015085;28;20642;-58
2022/04/18 09:20:40;;;;;;;3.17;2.13;;;;;;;;;;5015087;28;21134;-58
2022/04/18 09:23:06;;;;;;;2.42;2.15;;;;;;;;;;5016259;28;20539;-58
2022/04/18 09:25:37;;;;;;;2.35;2.15;;;;;;;;;;5018517;28;20851;-58
2022/04/18 09:28:03;;;;;;;2.63;2.13;;;;;;;;;;5018498;28;20185;-58
2022/04/18 09:30:32;;;;;;;2.63;2.10;;;;;;;;;;5014561;28;20591;-58
2022/04/18 09:33:02;;;;;;;3.17;2.05;;;;;;;;;;5016003;28;20618;-58
2022/04/18 09:35:28;;;;;;;2.35;2.15;;;;;;;;;;5015172;28;20286;-58
2022/04/18 09:37:54;;;;;;;3.38;2.10;;;;;;;;;;5014732;28;20659;-58
2022/04/18 09:40:24;;;;;;;2.10;1.90;;;;;;;;;;5016936;28;20203;-58
2022/04/18 09:42:53;;;;;;;2.58;2.00;;;;;;;;;;5016465;28;20292;-58
2022/04/18 09:45:19;;;;;;;3.72;2.10;;;;;;;;;;5015127;28;20192;-58
2022/04/18 09:47:46;;;;;;;3.17;2.20;;;;;;;;;;5018388;28;20194;-58
2022/04/18 09:53:16;;;;;;;3.67;2.20;;;;;;;;;;5015898;28;20217;-58
2022/04/18 09:55:47;;;;;;;3.70;2.08;;;;;;;;;;5014932;28;20273;-58
2022/04/18 09:58:13;;;;;;;7.20;2.20;;;;;;;;;;5017161;28;20579;-58
2022/04/18 10:00:39;;;;;;;2.92;1.80;;;;;;;;;;5013685;28;20185;-58
2022/04/18 10:03:04;;;;;;;3.05;2.13;;;;;;;;;;5014745;28;20691;-59
2022/04/18 10:05:30;;;;;;;2.90;2.10;;;;;;;;;;5020629;28;20193;-58
2022/04/18 10:07:56;;;;;;;2.38;2.13;;;;;;;;;;5014539;28;20594;-58
2022/04/18 10:10:23;;;;;;;2.30;2.10;;;;;;;;;;5017671;28;20221;-59
2022/04/18 10:12:50;;;;;;;3.08;2.13;;;;;;;;;;5013271;28;20300;-58
2022/04/18 10:15:16;;;;;;;5.28;2.40;;;;;;;;;;5013902;28;20225;-58
2022/04/18 10:17:42;;;;;;;3.55;2.25;;;;;;;;;;5015719;28;20283;-58
2022/04/18 10:20:25;;;;;;;2.55;2.35;;;;;;;;;;5021241;28;20272;-58
2022/04/18 10:23:00;;;;;;;2.22;1.98;;;;;;;;;;5020660;28;20204;-58
2022/04/18 10:25:45;;;;;;;2.67;2.20;;;;;;;;;;5015231;28;20216;-58
2022/04/18 10:28:14;;;;;;;2.25;2.13;;;;;;;;;;5013845;28;20200;-58
2022/04/18 10:31:07;;;;;;;3.40;2.20;;;;;;;;;;5019783;28;20233;-58
2022/04/18 10:33:33;;;;;;;3.80;2.17;;;;;;;;;;5017847;28;20260;-58
2022/04/18 10:36:02;;;;;;;2.30;2.10;;;;;;;;;;5012368;28;20228;-58
2022/04/18 10:38:31;;;;;;;2.33;2.08;;;;;;;;;;5011411;28;20366;-58
2022/04/18 10:41:15;;;;;;;3.28;1.90;;;;;;;;;;5015359;28;20185;-58
2022/04/18 10:44:02;;;;;;;2.40;2.17;;;;;;;;;;5014054;28;20269;-58
2022/04/18 10:46:28;;;;;;;2.20;2.00;;;;;;;;;;5013686;28;20201;-59
2022/04/18 10:48:56;;;;;;;2.35;2.15;;;;;;;;;;5020293;28;20217;-58
2022/04/18 10:51:37;;;;;;;2.47;2.22;;;;;;;;;;5010316;28;20193;-58
2022/04/18 10:54:22;;;;;;;2.10;2.00;;;;;;;;;;5014981;28;20605;-58
2022/04/18 10:56:58;;;;;;;2.60;2.40;;;;;;;;;;5011425;28;20193;-58
2022/04/18 10:59:25;;;;;;;4.38;2.22;;;;;;;;;;5012725;28;20680;-57
2022/04/18 11:01:52;;;;;;;2.30;2.00;;;;;;;;;;5014758;28;20200;-58
2022/04/18 11:04:18;;;;;;;2.85;2.10;;;;;;;;;;5014280;28;20205;-58
2022/04/18 11:06:45;;;;;;;2.40;2.10;;;;;;;;;;5016413;28;20218;-58
2022/04/18 11:09:13;;;;;;;2.30;2.10;;;;;;;;;;5012539;28;20189;-58
2022/04/18 11:11:56;;;;;;;2.15;2.00;;;;;;;;;;5015511;28;20185;-58
2022/04/18 11:14:25;;;;;;;3.63;2.30;;;;;;;;;;5011749;28;20249;-58
2022/04/18 11:16:52;;;;;;;3.78;2.00;;;;;;;;;;5014312;28;20197;-58
2022/04/18 11:19:24;;;;;;;3.28;2.30;;;;;;;;;;5013946;28;20185;-58
2022/04/18 11:21:59;;;;;;;2.13;1.92;;;;;;;;;;5014566;28;20204;-57
2022/04/18 11:24:38;;;;;;;5.00;2.00;;;;;;;;;;5015765;28;20234;-59
2022/04/18 11:27:13;;;;;;;1.92;1.83;;;;;;;;;;5014315;28;20272;-59
2022/04/18 11:29:41;;;;;;;2.40;2.20;;;;;;;;;;5015170;28;20225;-59
2022/04/18 11:32:07;;;;;;;2.38;2.17;;;;;;;;;;5008963;28;20186;-58
2022/04/18 11:34:33;;;;;;;1.98;1.80;;;;;;;;;;5014206;28;20216;-58
2022/04/18 11:37:00;;;;;;;2.20;1.92;;;;;;;;;;5014769;28;20669;-59
2022/04/18 11:39:45;;;;;;;2.08;1.95;;;;;;;;;;5014767;28;20664;-58
2022/04/18 11:42:15;;;;;;;4.00;1.98;;;;;;;;;;5013718;28;20193;-59
2022/04/18 11:44:41;;;;;;;1.88;1.77;;;;;;;;;;5013999;28;20185;-59
2022/04/18 11:47:11;;;;;;;2.47;2.28;;;;;;;;;;5013324;28;20198;-59
2022/04/18 11:49:38;;;;;;;3.10;1.70;;;;;;;;;;5021212;28;20194;-59
2022/04/18 11:52:04;;;;;;;1.90;1.80;;;;;;;;;;5012761;28;20196;-59
2022/04/18 11:54:30;;;;;;;2.28;1.85;;;;;;;;;;5012517;28;20244;-59
2022/04/18 11:56:56;;;;;;;2.05;1.85;;;;;;;;;;5014035;28;20626;-59
2022/04/18 11:59:22;;;;;;;2.17;1.98;;;;;;;;;;5015720;28;20565;-59
2022/04/18 12:07:19;;;;;;;3.03;1.90;;;;;;;;;;5013790;28;20251;-59
2022/04/18 12:09:45;;;;;;;4.60;1.98;;;;;;;;;;5016147;28;20682;-59
2022/04/18 12:12:25;;;;;;;2.47;1.90;;;;;;;;;;5012754;28;20185;-59
2022/04/18 12:14:51;;;;;;;4.45;2.10;;;;;;;;;;5013593;28;20223;-59
2022/04/18 12:17:17;;;;;;;2.28;1.80;;;;;;;;;;5014785;28;20655;-59
2022/04/18 12:19:43;;;;;;;1.83;1.70;;;;;;;;;;5007396;28;20403;-59
2022/04/18 12:22:08;;;;;;;2.08;1.70;;;;;;;;;;5013330;28;20213;-59
2022/04/18 12:24:40;;;;;;;2.08;1.90;;;;;;;;;;5018747;28;20189;-59
2022/04/18 12:27:06;;;;;;;3.75;2.10;;;;;;;;;;5013789;28;20201;-59
2022/04/18 12:29:32;;;;;;;1.75;1.65;;;;;;;;;;5013824;28;20550;-59
2022/04/18 12:31:59;;;;;;;2.17;1.98;;;;;;;;;;5020499;28;20684;-59
2022/04/18 12:34:25;;;;;;;1.92;1.83;;;;;;;;;;5014106;28;20650;-59
2022/04/18 12:37:01;;;;;;;1.83;1.73;;;;;;;;;;5014147;28;20272;-59
2022/04/18 12:39:27;;;;;;;1.90;1.80;;;;;;;;;;5013289;28;20596;-59
2022/04/18 12:42:06;;;;;;;2.00;1.90;;;;;;;;;;5013571;28;20621;-58
2022/04/18 12:44:32;;;;;;;2.15;1.75;;;;;;;;;;5013823;28;21013;-59
2022/04/18 12:46:58;;;;;;;2.25;2.00;;;;;;;;;;5016653;28;20220;-59
2022/04/18 12:49:24;;;;;;;2.92;1.80;;;;;;;;;;5013297;28;20289;-59
2022/04/18 12:51:50;;;;;;;2.40;2.10;;;;;;;;;;5013114;28;20202;-59
2022/04/18 12:54:20;;;;;;;5.18;1.92;;;;;;;;;;5013696;28;20814;-59
2022/04/18 12:56:49;;;;;;;2.40;2.15;;;;;;;;;;5013040;28;20193;-60
2022/04/18 12:59:21;;;;;;;3.10;2.10;;;;;;;;;;5013897;28;20188;-60
2022/04/18 13:01:48;;;;;;;2.00;1.90;;;;;;;;;;5013485;28;20216;-58
2022/04/18 13:04:21;;;;;;;2.03;1.92;;;;;;;;;;5014940;28;20678;-58
2022/04/18 13:07:04;;;;;;;2.10;1.90;;;;;;;;;;5013550;28;20686;-60
2022/04/18 13:09:30;;;;;;;2.22;1.92;;;;;;;;;;5013343;28;20233;-60
2022/04/18 13:12:02;;;;;;;2.20;1.90;;;;;;;;;;5007536;28;20774;-59
2022/04/18 13:14:29;;;;;;;2.00;1.80;;;;;;;;;;5015129;28;20548;-59
2022/04/18 13:17:08;;;;;;;2.03;1.92;;;;;;;;;;5012572;28;20190;-59
2022/04/18 13:19:35;;;;;;;2.70;1.75;;;;;;;;;;5014324;28;20177;-59
2022/04/18 13:22:02;;;;;;;2.80;2.00;;;;;;;;;;5013973;28;20182;-60
2022/04/18 13:24:28;;;;;;;2.35;1.88;;;;;;;;;;5014565;28;20185;-57
2022/04/18 13:26:55;;;;;;;2.10;1.90;;;;;;;;;;5014573;28;20612;-59
2022/04/18 13:29:21;;;;;;;2.05;1.90;;;;;;;;;;5015154;28;20193;-59
2022/04/18 13:31:47;;;;;;;1.98;1.88;;;;;;;;;;5014700;28;20222;-59
2022/04/18 13:34:13;;;;;;;2.20;2.00;;;;;;;;;;5017872;28;20216;-60
2022/04/18 13:36:39;;;;;;;2.00;1.80;;;;;;;;;;5015558;28;20185;-59
2022/04/18 13:39:12;;;;;;;2.03;1.83;;;;;;;;;;5015911;28;20276;-60
2022/04/18 13:41:39;;;;;;;2.10;1.90;;;;;;;;;;5018373;28;20243;-59
2022/04/18 13:44:05;;;;;;;3.20;1.75;;;;;;;;;;5016515;28;20185;-59
2022/04/18 13:46:31;;;;;;;2.38;1.90;;;;;;;;;;5015159;28;20198;-59
2022/04/18 13:48:57;;;;;;;1.98;1.75;;;;;;;;;;5016928;28;20201;-59
2022/04/18 13:51:24;;;;;;;2.30;2.00;;;;;;;;;;5023644;28;20217;-59
2022/04/18 13:53:51;;;;;;;3.42;1.70;;;;;;;;;;5014908;28;20206;-60
2022/04/18 13:56:17;;;;;;;2.40;1.80;;;;;;;;;;5015757;28;20182;-59
2022/04/18 13:58:43;;;;;;;1.73;1.60;;;;;;;;;;5014452;28;20214;-59
2022/04/18 14:01:09;;;;;;;2.85;1.70;;;;;;;;;;5017920;28;20193;-59
2022/04/18 14:03:37;;;;;;;3.72;2.10;;;;;;;;;;5017282;28;20197;-59
2022/04/18 14:06:04;;;;;;;1.70;1.60;;;;;;;;;;5016113;28;20378;-59
2022/04/18 14:08:31;;;;;;;2.00;1.70;;;;;;;;;;5016913;28;20212;-59
2022/04/18 14:10:57;;;;;;;2.13;1.67;;;;;;;;;;5011096;28;20197;-58
2022/04/18 14:13:23;;;;;;;2.15;1.80;;;;;;;;;;5014922;28;20212;-59
2022/04/18 14:21:19;;;;;;;2.13;1.80;;;;;;;;;;5017500;28;20227;-60
2022/04/18 14:23:45;;;;;;;1.90;1.80;;;;;;;;;;5016610;28;20193;-59
2022/04/18 14:26:12;;;;;;;2.20;2.00;;;;;;;;;;5014803;28;20189;-59
2022/04/18 14:28:38;;;;;;;2.22;1.90;;;;;;;;;;5015061;28;20272;-59
2022/04/18 14:31:04;;;;;;;2.22;1.70;;;;;;;;;;5014960;28;20316;-59
2022/04/18 14:33:30;;;;;;;1.80;1.70;;;;;;;;;;5014576;28;20327;-58
2022/04/18 14:35:56;;;;;;;2.10;1.90;;;;;;;;;;5015800;28;20189;-59
2022/04/18 14:38:22;;;;;;;2.58;2.00;;;;;;;;;;5016376;28;20756;-59
2022/04/18 14:40:48;;;;;;;2.40;1.98;;;;;;;;;;5014623;28;20252;-59
2022/04/18 14:43:17;;;;;;;4.53;1.60;;;;;;;;;;5014093;28;20185;-59
2022/04/18 14:45:43;;;;;;;2.10;1.90;;;;;;;;;;5016054;28;20204;-59
2022/04/18 14:48:09;;;;;;;1.77;1.60;;;;;;;;;;5016553;28;20300;-59
2022/04/18 14:50:35;;;;;;;3.17;1.80;;;;;;;;;;5013433;28;20250;-59
2022/04/18 14:53:01;;;;;;;1.95;1.75;;;;;;;;;;5014057;28;20217;-59
2022/04/18 14:55:27;;;;;;;2.30;1.95;;;;;;;;;;5015130;28;20780;-59
2022/04/18 14:57:53;;;;;;;2.15;1.70;;;;;;;;;;5015105;28;20190;-59
2022/04/18 15:00:19;;;;;;;2.05;1.85;;;;;;;;;;5013575;28;20251;-59
2022/04/18 15:02:45;;;;;;;2.00;1.80;;;;;;;;;;5015049;28;20182;-59
2022/04/18 15:05:11;;;;;;;2.08;1.88;;;;;;;;;;5017782;28;20216;-59
2022/04/18 15:07:38;;;;;;;2.30;1.80;;;;;;;;;;5015258;28;20208;-59
2022/04/18 15:10:05;;;;;;;1.90;1.63;;;;;;;;;;5015763;28;20738;-59
2022/04/18 15:12:30;;;;;;;1.70;1.60;;;;;;;;;;5015922;28;20740;-59